Time;durP1;ratioP1;P1;durP2;ratioP2;P2;SDS_P1;SDS_P2;PMS_P1;PMS_P2;Temp;Humidity;BMP_temperature;BMP_pressure;BME280_temperature;BME280_humidity;BME280_pressure;Samples;Min_cycle;Max_cycle;Signal;HPM_P1;HPM_P2
2022/11/02 00:01:02;;;;;;;1.23;1.23;;;;;;;13.56;88.12;96015.25;4336056;32;20204;-62
2022/11/02 00:03:28;;;;;;;6.30;1.00;;;;;;;13.42;88.77;96020.59;4311859;33;20239;-62
2022/11/02 00:05:54;;;;;;;1.27;0.70;;;;;;;13.38;88.95;96024.91;4321300;32;20194;-62
2022/11/02 00:08:21;;;;;;;0.63;0.63;;;;;;;13.46;88.68;96026.12;4309024;32;20225;-63
2022/11/02 00:10:46;;;;;;;1.63;0.73;;;;;;;13.44;88.68;96025.62;4303538;33;20262;-63
2022/11/02 00:13:13;;;;;;;0.93;0.93;;;;;;;13.49;88.50;96025.53;4306375;32;20198;-62
2022/11/02 00:15:40;;;;;;;3.40;1.27;;;;;;;13.48;88.49;96023.94;4303431;33;20279;-62
2022/11/02 00:18:10;;;;;;;0.70;0.70;;;;;;;13.42;88.55;96020.59;4333347;32;20197;-62
2022/11/02 00:20:38;;;;;;;0.57;0.57;;;;;;;13.39;88.60;96021.94;4320825;32;20210;-62
2022/11/02 00:23:06;;;;;;;1.00;0.80;;;;;;;13.29;88.90;96026.69;4300780;33;20189;-62
2022/11/02 00:25:34;;;;;;;1.90;1.30;;;;;;;13.22;89.41;96026.25;4331451;32;20241;-62
2022/11/02 00:27:59;;;;;;;1.30;1.30;;;;;;;13.18;89.08;96031.38;4328950;32;20252;-62
2022/11/02 00:30:25;;;;;;;0.57;0.57;;;;;;;12.98;89.82;96029.00;4332048;32;20221;-62
2022/11/02 00:32:50;;;;;;;0.57;0.57;;;;;;;13.07;89.96;96030.72;4283967;33;20206;-62
2022/11/02 00:35:15;;;;;;;1.07;0.50;;;;;;;12.99;89.97;96027.94;4325237;33;20198;-62
2022/11/02 00:37:42;;;;;;;1.40;1.30;;;;;;;12.90;90.49;96035.78;4337271;32;20216;-62
2022/11/02 00:40:11;;;;;;;0.87;0.87;;;;;;;12.80;91.04;96041.28;4285640;32;20349;-62
2022/11/02 00:42:37;;;;;;;0.80;0.80;;;;;;;12.72;91.51;96034.72;4319605;32;21521;-62
2022/11/02 00:45:05;;;;;;;0.33;0.33;;;;;;;12.83;91.12;96039.91;4327557;33;20212;-62
2022/11/02 00:47:32;;;;;;;1.03;0.93;;;;;;;12.78;91.35;96037.31;4315118;33;20189;-62
2022/11/02 00:49:59;;;;;;;0.83;0.73;;;;;;;12.82;91.13;96046.31;4311520;33;20251;-62
2022/11/02 00:52:24;;;;;;;26.10;1.93;;;;;;;12.81;90.91;96036.75;4284884;33;20186;-62
2022/11/02 00:54:51;;;;;;;1.17;1.17;;;;;;;12.90;90.46;96038.44;4311905;33;20265;-62
2022/11/02 00:57:16;;;;;;;0.87;0.87;;;;;;;12.81;91.25;96032.22;4322419;33;20202;-62
2022/11/02 00:59:43;;;;;;;2.17;1.40;;;;;;;12.87;91.05;96035.59;4297806;33;20212;-62
2022/11/02 01:02:10;;;;;;;0.63;0.50;;;;;;;12.89;90.72;96036.06;4320605;33;20297;-62
2022/11/02 01:04:37;;;;;;;1.30;0.50;;;;;;;12.91;90.20;96033.91;4325533;32;20194;-62
2022/11/02 01:07:04;;;;;;;0.57;0.57;;;;;;;12.88;90.46;96037.19;4312668;33;20237;-62
2022/11/02 01:09:29;;;;;;;0.83;0.83;;;;;;;12.87;90.25;96048.91;4320666;32;20236;-62
2022/11/02 01:11:56;;;;;;;2.30;1.23;;;;;;;12.79;90.36;96042.34;4310505;32;20252;-62
2022/11/02 01:14:22;;;;;;;0.77;0.77;;;;;;;12.87;90.14;96041.72;4324187;32;20202;-62
2022/11/02 01:16:48;;;;;;;0.83;0.83;;;;;;;12.85;90.44;96046.53;4326012;32;20205;-62
2022/11/02 01:19:15;;;;;;;3.77;0.97;;;;;;;12.87;90.10;96041.72;4310747;33;20245;-62
2022/11/02 01:21:40;;;;;;;0.30;0.30;;;;;;;12.88;90.01;96050.50;4315089;33;20187;-62
2022/11/02 01:24:06;;;;;;;0.77;0.63;;;;;;;12.81;89.90;96042.84;4313320;32;23071;-62
2022/11/02 01:26:32;;;;;;;0.80;0.80;;;;;;;12.79;90.11;96050.34;4284823;33;20186;-62
2022/11/02 01:28:57;;;;;;;1.93;1.40;;;;;;;12.76;90.38;96050.91;4302636;32;20229;-62
2022/11/02 01:31:22;;;;;;;0.40;0.40;;;;;;;12.64;90.60;96050.56;4311069;33;20196;-62
2022/11/02 01:33:48;;;;;;;0.60;0.60;;;;;;;12.65;90.71;96055.59;4316045;33;20190;-62
2022/11/02 01:36:20;;;;;;;1.50;0.67;;;;;;;12.61;91.23;96057.25;4303244;33;20198;-62
2022/11/02 01:38:48;;;;;;;0.33;0.33;;;;;;;12.65;90.72;96065.47;4307945;33;20209;-62
2022/11/02 01:41:16;;;;;;;1.63;1.13;;;;;;;12.65;90.50;96060.13;4314867;33;20190;-62
2022/11/02 01:43:45;;;;;;;1.77;1.67;;;;;;;12.67;90.74;96056.12;4314398;33;20201;-62
2022/11/02 01:46:21;;;;;;;1.07;1.07;;;;;;;12.71;90.32;96048.31;4307903;32;20201;-62
2022/11/02 01:49:02;;;;;;;0.67;0.67;;;;;;;12.53;91.42;96065.06;4325739;32;20223;-62
2022/11/02 01:52:06;;;;;;;1.17;1.10;;;;;;;12.52;91.19;96058.97;4290441;33;20198;-62
2022/11/02 01:54:42;;;;;;;0.50;0.50;;;;;;;12.59;91.11;96062.06;4312573;32;20227;-62
2022/11/02 01:57:11;;;;;;;0.63;0.63;;;;;;;12.52;90.85;96064.28;4326959;32;20304;-62
2022/11/02 02:00:05;;;;;;;0.80;0.53;;;;;;;12.49;91.46;96069.38;4316671;32;20356;-62
2022/11/02 02:02:31;;;;;;;1.03;1.03;;;;;;;12.51;91.45;96061.91;4318627;33;20259;-62
2022/11/02 02:05:08;;;;;;;1.87;1.13;;;;;;;12.58;91.12;96059.69;4329687;32;20194;-62
2022/11/02 02:07:37;;;;;;;0.40;0.40;;;;;;;12.62;90.79;96061.50;4323012;32;20241;-62
2022/11/02 02:10:06;;;;;;;2.10;1.47;;;;;;;12.49;91.54;96059.53;4332736;32;20251;-62
2022/11/02 02:12:41;;;;;;;1.40;1.30;;;;;;;12.58;91.24;96054.38;4290575;33;20228;-62
2022/11/02 02:15:13;;;;;;;1.43;0.80;;;;;;;12.69;90.83;96055.78;4323142;32;20223;-62
2022/11/02 02:17:55;;;;;;;2.23;1.87;;;;;;;12.64;91.01;96054.03;4328151;32;20197;-62
2022/11/02 02:20:47;;;;;;;1.00;1.00;;;;;;;12.67;90.64;96045.47;4327740;32;20194;-62
2022/11/02 02:23:44;;;;;;;1.43;1.33;;;;;;;12.53;91.47;96051.78;4289918;33;20254;-62
2022/11/02 02:26:37;;;;;;;0.63;0.63;;;;;;;12.46;91.68;96054.00;4329056;32;20186;-62
2022/11/02 02:29:38;;;;;;;5.20;1.07;;;;;;;12.62;91.11;96060.72;4322059;32;20225;-62
2022/11/02 02:32:21;;;;;;;1.00;1.00;;;;;;;12.69;90.90;96061.13;4319732;32;20201;-62
2022/11/02 02:35:44;;;;;;;1.93;1.37;;;;;;;12.66;90.49;96069.72;4337605;32;20186;-62
2022/11/02 02:38:29;;;;;;;2.43;1.47;;;;;;;12.75;90.56;96070.63;4277680;32;20203;-62
2022/11/02 02:41:05;;;;;;;0.80;0.80;;;;;;;12.74;90.51;96083.16;4310660;32;20193;-62
2022/11/02 02:43:39;;;;;;;5.00;0.93;;;;;;;12.55;90.76;96076.22;4312154;32;20200;-62
2022/11/02 02:46:29;;;;;;;0.70;0.70;;;;;;;12.44;91.33;96077.47;4309976;32;20186;-62
2022/11/02 02:48:56;;;;;;;0.60;0.60;;;;;;;12.45;91.48;96077.16;4303600;33;20197;-62
2022/11/02 02:51:27;;;;;;;0.87;0.87;;;;;;;12.25;92.03;96078.22;4320931;32;20200;-62
2022/11/02 02:54:18;;;;;;;1.33;1.23;;;;;;;12.29;91.96;96081.06;4331785;32;20192;-62
2022/11/02 02:57:00;;;;;;;0.50;0.50;;;;;;;12.23;92.18;96085.69;4332308;32;20224;-62
2022/11/02 02:59:39;;;;;;;0.93;0.93;;;;;;;12.24;92.67;96083.81;4302400;32;20224;-62
2022/11/02 03:02:12;;;;;;;0.70;0.70;;;;;;;12.23;92.53;96085.69;4331598;32;20212;-62
2022/11/02 03:04:37;;;;;;;0.10;0.10;;;;;;;12.34;92.34;96081.03;4330554;32;20207;-62
2022/11/02 03:07:03;;;;;;;0.97;0.93;;;;;;;12.34;92.34;96089.81;4335848;32;20190;-62
2022/11/02 03:09:39;;;;;;;1.30;1.03;;;;;;;12.34;92.58;96087.12;4323943;32;20215;-62
2022/11/02 03:12:27;;;;;;;1.13;1.07;;;;;;;12.50;92.14;96082.41;4327022;32;20220;-62
2022/11/02 03:15:14;;;;;;;0.83;0.83;;;;;;;12.48;92.49;96086.44;4321170;32;20197;-62
2022/11/02 03:17:54;;;;;;;2.23;1.33;;;;;;;12.52;92.31;96087.44;4344618;32;20193;-62
2022/11/02 03:20:50;;;;;;;0.37;0.37;;;;;;;12.58;92.14;96088.97;4312559;33;20257;-62
2022/11/02 03:23:37;;;;;;;0.83;0.83;;;;;;;12.65;91.88;96103.53;4305759;33;20193;-62
2022/11/02 03:26:29;;;;;;;0.73;0.73;;;;;;;12.71;92.18;96098.91;4314330;33;20197;-62
2022/11/02 03:29:21;;;;;;;0.43;0.43;;;;;;;12.66;92.31;96094.47;4322767;32;20196;-62
2022/11/02 03:32:05;;;;;;;2.07;1.00;;;;;;;12.80;91.98;96099.84;4311380;32;20237;-63
2022/11/02 03:34:42;;;;;;;2.00;1.37;;;;;;;12.81;92.17;96104.09;4327028;32;20204;-62
2022/11/02 03:37:39;;;;;;;0.83;0.83;;;;;;;12.71;92.74;96101.56;4300417;33;20184;-62
2022/11/02 03:40:36;;;;;;;0.80;0.80;;;;;;;12.81;92.85;96108.63;4318269;32;20209;-62
2022/11/02 03:43:08;;;;;;;0.50;0.50;;;;;;;12.82;92.91;96108.34;4321888;32;20201;-62
2022/11/02 03:45:50;;;;;;;0.60;0.60;;;;;;;12.79;93.33;96108.91;4330956;32;20186;-62
2022/11/02 03:48:17;;;;;;;1.17;1.17;;;;;;;12.84;93.35;96116.06;4309123;32;20204;-62
2022/11/02 03:50:46;;;;;;;0.30;0.30;;;;;;;12.87;93.50;96116.28;4304531;32;20214;-62
2022/11/02 03:53:51;;;;;;;3.10;1.43;;;;;;;12.85;93.57;96121.09;4317664;33;20245;-62
2022/11/02 03:56:30;;;;;;;1.13;1.07;;;;;;;12.78;93.72;96107.34;4316749;33;20300;-63
2022/11/02 03:58:56;;;;;;;0.50;0.50;;;;;;;12.83;93.91;96119.78;4295604;32;20271;-62
2022/11/02 04:01:23;;;;;;;1.03;1.03;;;;;;;12.91;93.22;96117.25;4301022;33;20185;-62
2022/11/02 04:03:48;;;;;;;0.83;0.60;;;;;;;12.84;93.26;96124.84;4303009;33;20203;-62
2022/11/02 04:06:16;;;;;;;7.30;1.83;;;;;;;12.85;93.18;96128.28;4310624;33;20205;-62
2022/11/02 04:08:44;;;;;;;0.70;0.70;;;;;;;12.80;93.41;96131.00;4339452;32;20188;-62
2022/11/02 04:16:42;;;;;;;0.73;0.73;;;;;;;12.83;93.13;96130.44;4315962;32;20260;-62
2022/11/02 04:19:28;;;;;;;0.73;0.73;;;;;;;12.68;93.65;96131.41;4334659;32;20189;-62
2022/11/02 04:27:24;;;;;;;1.30;1.20;;;;;;;12.63;93.79;96126.19;4316553;32;20204;-62
2022/11/02 04:29:50;;;;;;;0.50;0.50;;;;;;;12.58;94.06;96132.34;4294031;33;20241;-62
2022/11/02 04:33:31;;;;;;;0.73;0.73;;;;;;;12.61;94.01;96123.00;4316455;32;20182;-62
2022/11/02 04:35:02;;;;;;;0.73;0.73;;;;;;;12.65;93.69;96122.16;4325715;32;20204;-62
2022/11/02 04:40:11;;;;;;;1.57;0.97;;;;;;;12.79;92.84;96122.22;4312183;32;20200;-62
2022/11/02 04:42:36;;;;;;;1.10;1.03;;;;;;;12.62;93.03;96127.25;4322874;32;20273;-62
2022/11/02 04:45:03;;;;;;;4.13;1.57;;;;;;;12.62;92.80;96113.94;4334333;32;20267;-62
2022/11/02 04:47:29;;;;;;;1.33;1.10;;;;;;;12.55;93.27;96118.81;4288582;33;20254;-62
2022/11/02 04:49:57;;;;;;;0.53;0.53;;;;;;;12.60;93.18;96111.56;4299495;33;20232;-62
2022/11/02 04:52:23;;;;;;;0.90;0.90;;;;;;;12.58;93.19;96116.38;4323348;33;20231;-62
2022/11/02 04:54:48;;;;;;;0.80;0.80;;;;;;;12.57;93.10;96100.69;4334407;33;20250;-62
2022/11/02 04:57:13;;;;;;;0.50;0.50;;;;;;;12.56;92.99;96115.88;4344461;33;20189;-62
2022/11/02 04:59:39;;;;;;;1.17;1.13;;;;;;;12.61;92.67;96109.69;4333261;32;20395;-62
2022/11/02 05:02:04;;;;;;;0.73;0.73;;;;;;;12.75;92.20;96113.22;4307482;32;20190;-62
2022/11/02 05:04:29;;;;;;;1.03;1.03;;;;;;;12.66;92.23;96113.09;4325113;33;20243;-62
2022/11/02 05:06:54;;;;;;;0.70;0.70;;;;;;;12.71;92.29;96113.00;4322959;33;20197;-62
2022/11/02 05:09:20;;;;;;;1.90;1.43;;;;;;;12.65;92.42;96118.69;4309370;32;20302;-62
2022/11/02 05:11:46;;;;;;;0.57;0.57;;;;;;;12.73;92.45;96115.38;4319008;33;20257;-62
2022/11/02 05:14:12;;;;;;;1.20;1.20;;;;;;;12.64;92.37;96111.78;4338488;32;20197;-62
2022/11/02 05:16:37;;;;;;;0.90;0.90;;;;;;;12.63;92.57;96110.22;4324604;33;20336;-62
2022/11/02 05:19:02;;;;;;;0.70;0.70;;;;;;;12.53;92.98;96116.44;4325857;33;20239;-62
2022/11/02 05:21:28;;;;;;;0.67;0.57;;;;;;;12.65;92.58;96124.81;4326466;33;20205;-62
2022/11/02 05:23:53;;;;;;;0.77;0.77;;;;;;;12.58;92.81;96126.22;4327971;32;20197;-62
2022/11/02 05:26:20;;;;;;;1.13;1.07;;;;;;;12.56;92.83;96126.53;4307524;33;20198;-63
2022/11/02 05:28:45;;;;;;;1.03;0.77;;;;;;;12.62;92.54;96124.59;4294868;33;20228;-62
2022/11/02 05:31:12;;;;;;;0.93;0.93;;;;;;;12.56;92.86;96120.41;4317672;33;20190;-62
2022/11/02 05:33:37;;;;;;;0.90;0.90;;;;;;;12.66;92.49;96123.75;4322142;32;20285;-62
2022/11/02 05:36:03;;;;;;;0.80;0.80;;;;;;;12.78;91.95;96122.50;4308516;32;20202;-62
2022/11/02 05:38:28;;;;;;;0.97;0.97;;;;;;;12.88;91.07;96123.19;4285076;33;20186;-62
2022/11/02 05:40:58;;;;;;;0.93;0.93;;;;;;;12.78;91.47;96125.97;4305398;33;20265;-62
2022/11/02 05:43:25;;;;;;;1.47;1.37;;;;;;;12.75;91.70;96123.88;4300962;33;20228;-62
2022/11/02 05:45:53;;;;;;;1.40;1.30;;;;;;;12.66;92.18;96131.72;4303743;33;20312;-62
2022/11/02 05:48:20;;;;;;;7.73;1.03;;;;;;;12.65;92.36;96127.47;4280898;33;20266;-62
2022/11/02 05:50:47;;;;;;;1.00;1.00;;;;;;;12.64;92.28;96120.56;4334201;32;20208;-62
2022/11/02 05:53:14;;;;;;;4.57;1.63;;;;;;;12.58;92.58;96127.03;4280790;33;20208;-62
2022/11/02 05:55:39;;;;;;;1.40;1.30;;;;;;;12.64;92.36;96127.75;4329103;32;20236;-62
2022/11/02 05:58:04;;;;;;;0.90;0.90;;;;;;;12.68;92.47;96123.44;4326445;32;20185;-62
2022/11/02 06:00:31;;;;;;;1.60;1.57;;;;;;;12.59;92.60;96125.94;4330631;32;20224;-62
2022/11/02 06:02:58;;;;;;;2.47;1.17;;;;;;;12.61;92.82;96133.66;4326192;32;20263;-62
2022/11/02 06:05:28;;;;;;;0.80;0.80;;;;;;;12.65;92.62;96140.00;4321918;32;20261;-62
2022/11/02 06:07:58;;;;;;;0.73;0.73;;;;;;;12.77;91.56;96129.72;4326934;32;20188;-62
2022/11/02 06:10:29;;;;;;;1.00;0.87;;;;;;;12.78;91.54;96141.94;4320879;32;20194;-62
2022/11/02 06:13:01;;;;;;;0.77;0.77;;;;;;;12.77;91.65;96153.69;4331707;32;20185;-62
2022/11/02 06:15:28;;;;;;;0.70;0.70;;;;;;;12.76;91.33;96157.41;4325637;32;20197;-62
2022/11/02 06:17:54;;;;;;;0.70;0.70;;;;;;;12.87;90.98;96158.09;4311230;32;20213;-62
2022/11/02 06:20:21;;;;;;;1.00;0.83;;;;;;;12.71;91.56;96154.81;4328033;32;20205;-62
2022/11/02 06:22:47;;;;;;;1.47;1.37;;;;;;;12.74;91.51;96163.03;4337509;32;20215;-62
2022/11/02 06:25:15;;;;;;;1.57;1.47;;;;;;;12.68;91.77;96160.69;4321816;32;20201;-62
2022/11/02 06:27:40;;;;;;;1.20;1.20;;;;;;;12.73;91.73;96160.63;4317172;32;20212;-62
2022/11/02 06:30:09;;;;;;;0.50;0.50;;;;;;;12.76;91.54;96161.94;4332252;32;22705;-62
2022/11/02 06:32:35;;;;;;;2.53;0.87;;;;;;;12.66;91.78;96173.53;4315065;32;20206;-62
2022/11/02 06:35:01;;;;;;;0.50;0.50;;;;;;;12.69;91.83;96172.94;4318010;32;20244;-62
2022/11/02 06:37:26;;;;;;;3.27;1.57;;;;;;;12.69;91.73;96164.94;4292100;33;20209;-62
2022/11/02 06:39:51;;;;;;;0.63;0.63;;;;;;;12.69;91.64;96173.72;4303941;33;20205;-62
2022/11/02 06:42:17;;;;;;;0.47;0.47;;;;;;;12.75;91.69;96177.13;4309802;33;20245;-62
2022/11/02 06:44:43;;;;;;;1.00;1.00;;;;;;;12.76;91.36;96172.59;4328090;33;20204;-62
2022/11/02 06:47:10;;;;;;;0.83;0.83;;;;;;;12.77;91.13;96192.81;4297962;33;20269;-62
2022/11/02 06:49:37;;;;;;;1.07;0.67;;;;;;;12.55;91.81;96194.12;4304241;33;20190;-62
2022/11/02 06:52:02;;;;;;;1.00;1.00;;;;;;;12.68;91.42;96179.34;4295391;33;20225;-62
2022/11/02 06:54:29;;;;;;;0.73;0.73;;;;;;;12.68;91.07;96184.66;4317224;33;20186;-62
2022/11/02 06:56:57;;;;;;;1.00;1.00;;;;;;;12.75;90.69;96195.75;4313730;33;20224;-62
2022/11/02 06:59:22;;;;;;;1.40;1.23;;;;;;;12.65;90.98;96201.22;4306707;33;20214;-62
2022/11/02 07:01:52;;;;;;;0.83;0.83;;;;;;;12.79;90.47;96194.12;4302815;33;20235;-63
2022/11/02 07:04:18;;;;;;;0.90;0.90;;;;;;;12.69;90.70;96202.22;4310377;33;20210;-63
2022/11/02 07:06:43;;;;;;;0.97;0.97;;;;;;;12.74;90.56;96202.16;4274923;33;20205;-62
2022/11/02 07:09:10;;;;;;;1.70;0.87;;;;;;;12.69;90.53;96204.87;4290730;33;20205;-62
2022/11/02 07:11:35;;;;;;;1.27;1.27;;;;;;;12.56;91.31;96203.72;4317183;33;20208;-62
2022/11/02 07:14:02;;;;;;;1.27;1.17;;;;;;;12.68;91.20;96204.09;4312552;32;20242;-62
2022/11/02 07:16:39;;;;;;;1.00;1.00;;;;;;;12.78;90.45;96203.19;4312422;32;20206;-62
2022/11/02 07:19:04;;;;;;;1.10;1.10;;;;;;;12.81;90.07;96201.81;4294902;33;20193;-62
2022/11/02 07:21:31;;;;;;;0.80;0.80;;;;;;;12.78;89.78;96205.84;4296561;33;20237;-62
2022/11/02 07:23:57;;;;;;;1.03;1.00;;;;;;;12.71;90.37;96205.37;4284834;33;20247;-62
2022/11/02 07:26:25;;;;;;;0.80;0.80;;;;;;;12.78;90.12;96205.84;4302550;33;20239;-63
2022/11/02 07:28:51;;;;;;;1.50;1.10;;;;;;;12.65;90.34;96209.22;4306577;33;20292;-62
2022/11/02 07:31:16;;;;;;;1.13;1.03;;;;;;;12.75;90.02;96214.41;4301130;33;20210;-62
2022/11/02 07:33:43;;;;;;;3.97;1.87;;;;;;;12.79;90.18;96211.97;4277290;33;20281;-51
2022/11/02 07:36:10;;;;;;;24.03;1.13;;;;;;;14.14;100.00;96196.13;4296255;33;20232;-53
2022/11/02 07:38:38;;;;;;;1.33;1.23;;;;;;;14.55;100.00;96201.56;4312120;33;20194;-52
2022/11/02 07:41:05;;;;;;;0.50;0.50;;;;;;;14.92;94.99;96205.91;4278673;33;20319;-55
2022/11/02 07:43:31;;;;;;;1.00;1.00;;;;;;;15.13;90.74;96199.81;4298949;33;20234;-55
2022/11/02 07:45:57;;;;;;;14.73;1.17;;;;;;;15.28;87.35;96200.56;4331467;32;20199;-56
2022/11/02 07:48:24;;;;;;;1.37;1.27;;;;;;;15.45;83.45;96204.19;4328411;32;20204;-55
2022/11/02 07:50:49;;;;;;;0.80;0.80;;;;;;;15.62;82.61;96203.56;4317215;33;20186;-55
2022/11/02 07:53:15;;;;;;;2.17;0.77;;;;;;;15.80;82.33;96202.59;4322403;32;20205;-55
2022/11/02 07:55:41;;;;;;;1.20;1.10;;;;;;;15.85;81.38;96207.03;4308125;33;20185;-56
2022/11/02 07:58:12;;;;;;;0.93;0.93;;;;;;;15.90;80.50;96203.44;4301115;33;20189;-54
2022/11/02 08:00:42;;;;;;;0.70;0.70;;;;;;;15.93;80.55;96209.00;4302679;32;20345;-62
2022/11/02 08:03:09;;;;;;;0.40;0.40;;;;;;;15.66;79.16;96209.88;4324959;32;20281;-61
2022/11/02 08:05:47;;;;;;;0.70;0.70;;;;;;;15.41;77.86;96213.09;4315892;32;20193;-62
2022/11/02 08:08:17;;;;;;;1.20;0.97;;;;;;;14.76;80.63;96208.84;4279207;33;20181;-62
2022/11/02 08:10:50;;;;;;;2.63;0.90;;;;;;;14.71;81.33;96213.53;4272760;33;20202;-61
2022/11/02 08:13:19;;;;;;;0.83;0.67;;;;;;;14.50;82.27;96221.13;4278535;33;20186;-61
2022/11/02 08:15:50;;;;;;;0.70;0.70;;;;;;;14.34;82.93;96217.91;4282595;33;20200;-61
2022/11/02 08:18:22;;;;;;;0.50;0.50;;;;;;;14.36;82.49;96215.72;4308756;33;20224;-61
2022/11/02 08:20:48;;;;;;;0.17;0.17;;;;;;;14.14;83.12;96217.47;4321061;32;20194;-64
2022/11/02 08:23:15;;;;;;;1.07;1.00;;;;;;;14.22;83.25;96219.47;4306428;32;20186;-62
2022/11/02 08:25:47;;;;;;;1.63;1.53;;;;;;;14.19;83.15;96218.19;4309003;33;20204;-62
2022/11/02 08:28:22;;;;;;;1.00;0.83;;;;;;;14.12;83.23;96219.66;4322032;32;20213;-61
2022/11/02 08:30:48;;;;;;;0.53;0.53;;;;;;;14.03;83.96;96223.00;4278067;33;20193;-62
2022/11/02 08:33:15;;;;;;;0.37;0.37;;;;;;;13.97;84.50;96226.03;4335828;32;20193;-59
2022/11/02 08:35:42;;;;;;;1.73;1.63;;;;;;;14.00;85.04;96222.78;4323157;32;20192;-59
2022/11/02 08:38:09;;;;;;;0.60;0.53;;;;;;;13.91;85.38;96222.66;4324961;32;20289;-58
2022/11/02 08:40:35;;;;;;;1.23;0.80;;;;;;;13.97;84.23;96226.03;4327863;32;20212;-59
2022/11/02 08:43:06;;;;;;;0.20;0.20;;;;;;;14.05;83.82;96220.81;4330630;32;20245;-59
2022/11/02 08:45:33;;;;;;;1.53;1.07;;;;;;;14.03;83.09;96217.66;4311638;32;20273;-62
2022/11/02 08:48:00;;;;;;;0.73;0.73;;;;;;;14.21;82.85;96221.34;4314776;33;20202;-63
2022/11/02 08:50:26;;;;;;;0.33;0.33;;;;;;;14.22;83.07;96217.59;4323691;32;20208;-62
2022/11/02 08:52:51;;;;;;;1.90;0.80;;;;;;;14.40;81.53;96215.94;4319767;33;20241;-65
2022/11/02 08:55:17;;;;;;;0.23;0.23;;;;;;;14.52;80.25;96218.16;4333779;32;20228;-68
2022/11/02 08:57:53;;;;;;;11.10;1.30;;;;;;;14.65;79.63;96215.50;4317505;33;20205;-56
2022/11/02 09:00:30;;;;;;;1.03;0.60;;;;;;;15.72;91.34;96214.03;4296281;33;20197;-52
2022/11/02 09:03:07;;;;;;;1.60;0.83;;;;;;;16.62;82.20;96212.03;4323606;32;20198;-55
2022/11/02 09:05:35;;;;;;;0.60;0.60;;;;;;;17.30;77.70;96221.37;4276883;33;20193;-55
2022/11/02 09:08:16;;;;;;;7.07;1.07;;;;;;;17.43;74.23;96225.03;4328857;32;20298;-55
2022/11/02 09:10:43;;;;;;;1.03;0.93;;;;;;;17.95;71.38;96225.03;4282747;33;20194;-55
2022/11/02 09:13:11;;;;;;;0.53;0.53;;;;;;;18.16;69.21;96224.06;4285752;33;20285;-53
2022/11/02 09:15:37;;;;;;;0.60;0.50;;;;;;;18.34;67.18;96222.13;4322337;33;20189;-63
2022/11/02 09:18:04;;;;;;;0.47;0.47;;;;;;;18.20;65.99;96229.59;4302871;33;20221;-61
2022/11/02 09:20:30;;;;;;;0.53;0.53;;;;;;;17.12;66.31;96225.91;4304512;33;20208;-61
2022/11/02 09:22:56;;;;;;;2.47;0.70;;;;;;;16.17;68.48;96229.28;4309814;32;20222;-60
2022/11/02 09:25:23;;;;;;;0.53;0.53;;;;;;;16.10;68.94;96230.50;4297443;33;20260;-61
2022/11/02 09:27:54;;;;;;;0.43;0.43;;;;;;;15.93;68.33;96233.06;4310096;33;20264;-61
2022/11/02 09:30:20;;;;;;;1.47;0.50;;;;;;;15.71;68.50;96239.22;4317763;32;20217;-61
2022/11/02 09:33:07;;;;;;;3.70;0.73;;;;;;;15.58;68.66;96234.72;4274089;33;20218;-60
2022/11/02 09:35:39;;;;;;;1.03;0.53;;;;;;;15.57;67.94;96243.03;4310335;33;20244;-61
2022/11/02 09:38:06;;;;;;;0.50;0.47;;;;;;;15.65;69.47;96240.41;4307574;33;20279;-61
2022/11/02 09:40:40;;;;;;;1.13;0.77;;;;;;;15.54;68.48;96239.03;4304513;32;20233;-61
2022/11/02 09:43:27;;;;;;;0.10;0.10;;;;;;;15.52;68.99;96248.47;4330990;32;20198;-62
2022/11/02 09:45:58;;;;;;;0.20;0.20;;;;;;;15.45;68.79;96246.19;4322193;32;20189;-61
2022/11/02 09:48:30;;;;;;;0.43;0.43;;;;;;;15.61;69.11;96252.00;4301766;33;20202;-60
2022/11/02 09:51:14;;;;;;;0.23;0.23;;;;;;;15.63;68.70;96250.63;4306175;33;20194;-61
2022/11/02 09:54:00;;;;;;;0.23;0.23;;;;;;;15.56;68.75;96252.16;4291897;32;20261;-63
2022/11/02 09:56:28;;;;;;;0.70;0.70;;;;;;;15.47;70.11;96244.00;4314477;33;20194;-60
2022/11/02 09:59:15;;;;;;;1.63;0.77;;;;;;;15.45;69.29;96248.88;4292130;33;20185;-62
2022/11/02 10:02:21;;;;;;;7.33;0.80;;;;;;;15.47;70.58;96246.69;4284143;33;20204;-62
2022/11/02 10:05:24;;;;;;;0.30;0.30;;;;;;;15.57;69.77;96259.09;4294351;33;20250;-61
2022/11/02 10:08:16;;;;;;;8.23;0.50;;;;;;;15.42;69.06;96252.91;4317623;32;20193;-61
2022/11/02 10:11:18;;;;;;;1.07;0.23;;;;;;;15.42;69.20;96257.47;4321975;32;20204;-62
2022/11/02 10:14:06;;;;;;;0.20;0.20;;;;;;;15.35;69.60;96252.56;4301987;32;20190;-61
2022/11/02 10:17:06;;;;;;;0.77;0.77;;;;;;;15.46;70.25;96253.13;4328661;32;20237;-61
2022/11/02 10:19:36;;;;;;;0.77;0.57;;;;;;;15.47;69.75;96265.41;4300088;33;20229;-61
2022/11/02 10:22:02;;;;;;;0.50;0.40;;;;;;;15.35;69.18;96259.78;4302636;32;20259;-61
2022/11/02 10:24:50;;;;;;;0.33;0.33;;;;;;;15.33;68.86;96264.66;4329372;32;20194;-62
2022/11/02 10:27:28;;;;;;;0.57;0.40;;;;;;;15.46;67.93;96263.81;4320224;32;20212;-61
2022/11/02 10:30:10;;;;;;;1.80;0.77;;;;;;;15.53;68.14;96266.87;4315327;32;20189;-62
2022/11/02 10:32:39;;;;;;;3.40;0.50;;;;;;;15.48;67.34;96273.13;4313254;33;20216;-62
2022/11/02 10:35:18;;;;;;;0.50;0.50;;;;;;;15.51;67.00;96271.75;4295264;33;20190;-64
2022/11/02 10:37:49;;;;;;;0.40;0.40;;;;;;;15.24;70.21;96261.09;4313993;33;20249;-64
2022/11/02 10:40:24;;;;;;;0.47;0.47;;;;;;;15.40;67.95;96259.66;4329822;32;20186;-65
2022/11/02 10:43:02;;;;;;;4.33;0.20;;;;;;;15.56;69.39;96270.88;4326649;33;20178;-64
2022/11/02 10:45:47;;;;;;;0.30;0.30;;;;;;;15.48;65.83;96266.97;4324307;32;20194;-61
2022/11/02 10:48:26;;;;;;;0.27;0.27;;;;;;;15.37;67.27;96266.44;4345441;32;20208;-61
2022/11/02 10:51:07;;;;;;;0.30;0.30;;;;;;;15.43;65.68;96264.41;4344312;32;20296;-61
2022/11/02 10:53:40;;;;;;;1.03;0.90;;;;;;;15.43;63.88;96267.09;4322867;32;20189;-63
2022/11/02 10:56:12;;;;;;;0.37;0.37;;;;;;;15.50;66.08;96259.44;4345829;32;20189;-60
2022/11/02 10:58:43;;;;;;;0.53;0.53;;;;;;;15.45;63.08;96262.22;4331678;32;20241;-61
2022/11/02 11:01:11;;;;;;;0.60;0.60;;;;;;;15.58;64.66;96266.00;4332000;32;20204;-60
2022/11/02 11:03:51;;;;;;;0.40;0.40;;;;;;;15.62;64.00;96259.72;4345644;32;20193;-62
2022/11/02 11:06:17;;;;;;;0.33;0.33;;;;;;;15.61;64.46;96255.47;4345775;32;20203;-61
2022/11/02 11:08:48;;;;;;;2.30;1.03;;;;;;;15.73;63.47;96253.06;4332145;32;20193;-62
2022/11/02 11:11:23;;;;;;;0.60;0.60;;;;;;;15.81;64.92;96248.88;4332243;32;20180;-63
2022/11/02 11:13:56;;;;;;;0.47;0.30;;;;;;;15.80;64.37;96247.28;4343864;32;20211;-63
2022/11/02 11:16:38;;;;;;;0.30;0.30;;;;;;;15.83;65.56;96252.03;4334949;32;20250;-62
2022/11/02 11:19:06;;;;;;;0.40;0.37;;;;;;;15.78;64.56;96254.84;4331932;32;20260;-61
2022/11/02 11:21:40;;;;;;;0.33;0.33;;;;;;;15.85;64.33;96249.84;4332276;32;20240;-62
2022/11/02 11:24:27;;;;;;;6.63;0.60;;;;;;;15.85;65.62;96252.53;4345399;32;20223;-61
2022/11/02 11:27:02;;;;;;;0.60;0.60;;;;;;;15.78;64.60;96244.94;4320762;32;20197;-62
2022/11/02 11:29:33;;;;;;;3.17;0.93;;;;;;;15.75;64.47;96245.53;4331268;32;20243;-63
2022/11/02 11:32:00;;;;;;;1.40;0.60;;;;;;;15.75;64.72;96244.75;4345865;32;20251;-63
2022/11/02 11:34:31;;;;;;;1.90;0.70;;;;;;;15.85;63.48;96241.03;4331758;32;20198;-62
2022/11/02 11:37:07;;;;;;;7.20;0.80;;;;;;;15.90;64.88;96243.59;4341101;32;20242;-63
2022/11/02 11:39:33;;;;;;;0.30;0.30;;;;;;;15.88;63.96;96243.91;4344686;32;20228;-63
2022/11/02 11:42:00;;;;;;;0.30;0.30;;;;;;;15.86;66.41;96240.72;4336801;32;20193;-64
2022/11/02 11:44:26;;;;;;;0.40;0.20;;;;;;;15.85;65.59;96246.38;4348959;32;20207;-64
2022/11/02 11:46:56;;;;;;;0.30;0.30;;;;;;;15.82;66.35;96245.09;4353410;32;20312;-64
2022/11/02 11:49:26;;;;;;;0.60;0.57;;;;;;;15.95;66.12;96243.47;4348960;32;20221;-63
2022/11/02 11:51:54;;;;;;;0.60;0.60;;;;;;;16.08;66.78;96237.25;4352433;32;20259;-64
2022/11/02 11:54:26;;;;;;;2.97;0.97;;;;;;;15.83;65.08;96241.34;4343124;32;20203;-64
2022/11/02 11:56:55;;;;;;;1.33;0.23;;;;;;;15.96;65.63;96247.75;4346633;32;20228;-64
2022/11/02 11:59:25;;;;;;;0.50;0.50;;;;;;;15.88;65.77;96245.78;4328043;32;20189;-64
2022/11/02 12:01:55;;;;;;;0.30;0.30;;;;;;;15.75;66.23;96242.87;4329687;32;20197;-64
2022/11/02 12:04:36;;;;;;;0.03;0.03;;;;;;;15.71;64.69;96247.25;4345293;32;20231;-63
2022/11/02 12:07:13;;;;;;;2.57;0.40;;;;;;;15.81;65.73;96248.88;4339802;32;20243;-62
2022/11/02 12:09:48;;;;;;;0.20;0.20;;;;;;;15.66;64.87;96242.00;4339810;32;20201;-63